createdAt,value
2019-04-22T00:36:35.226Z,1008.32
2019-04-22T00:37:43.781Z,1008.26
2019-04-22T00:38:38.646Z,1008.31
2019-04-22T00:39:42.599Z,1008.28
2019-04-22T00:40:41.246Z,1008.29
2019-04-22T00:41:43.823Z,1008.29
2019-04-22T00:42:41.559Z,1008.30
2019-04-22T00:43:39.612Z,1008.27
2019-04-22T00:44:40.330Z,1008.26
2019-04-22T00:45:52.516Z,1008.22
2019-04-22T00:46:43.207Z,1008.21
2019-04-22T00:47:41.473Z,1008.25
2019-04-22T00:48:43.124Z,1008.22
2019-04-22T00:50:37.428Z,1008.22
2019-04-22T00:51:44.934Z,1008.20
2019-04-22T00:52:39.912Z,1008.25
2019-04-22T00:53:39.186Z,1008.24
2019-04-22T00:54:45.623Z,1008.21
2019-04-22T00:55:37.866Z,1008.17
2019-04-22T00:56:35.743Z,1008.18
2019-04-22T00:57:42.453Z,1008.20
2019-04-22T00:58:42.687Z,1008.17
2019-04-22T00:59:42.132Z,1008.18
2019-04-22T01:00:42.021Z,1008.18
2019-04-22T01:01:37.247Z,1008.13
2019-04-22T01:02:44.899Z,1008.11
2019-04-22T01:03:44.737Z,1008.10
2019-04-22T01:04:39.316Z,1008.07
2019-04-22T01:05:40.433Z,1008.12
2019-04-22T01:06:41.649Z,1008.12
2019-04-22T01:07:35.803Z,1008.09
2019-04-22T01:08:48.142Z,1008.10
2019-04-22T01:09:38.870Z,1008.05
2019-04-22T01:10:39.667Z,1008.08
2019-04-22T01:11:38.837Z,1008.06
2019-04-22T01:12:39.592Z,1008.02
2019-04-22T01:13:38.764Z,1008.03
2019-04-22T01:14:42.987Z,1008.05
2019-04-22T01:15:40.429Z,1008.02
2019-04-22T01:16:44.222Z,1008.04
2019-04-22T01:17:41.759Z,1008.08
2019-04-22T01:18:37.718Z,1008.06
2019-04-22T01:19:45.072Z,1008.06
2019-04-22T01:21:13.387Z,1008.04
2019-04-22T01:21:40.381Z,1008.02
2019-04-22T01:22:36.270Z,1008.02
2019-04-22T01:23:37.564Z,1007.99
2019-04-22T01:24:32.776Z,1007.98
2019-04-22T01:25:30.574Z,1007.90
2019-04-22T01:26:28.998Z,1007.91
2019-04-22T01:27:33.438Z,1007.84
2019-04-22T01:28:27.866Z,1007.88
2019-04-22T01:29:26.177Z,1007.88
2019-04-22T01:30:24.198Z,1007.87
2019-04-22T01:31:19.642Z,1007.88
2019-04-22T01:32:22.697Z,1007.89
2019-04-22T01:33:23.821Z,1007.85
2019-04-22T01:34:27.867Z,1007.85
2019-04-22T01:35:31.149Z,1007.81
2019-04-22T01:36:35.270Z,1007.83
2019-04-22T01:37:34.355Z,1007.84
2019-04-22T01:38:36.684Z,1007.74
2019-04-22T01:39:46.380Z,1007.80
2019-04-22T01:40:45.514Z,1007.76
2019-04-22T01:41:48.613Z,1007.76
2019-04-22T01:42:43.238Z,1007.72
2019-04-22T01:43:54.411Z,1007.77
2019-04-22T01:44:40.227Z,1007.72
2019-04-22T01:45:41.396Z,1007.72
2019-04-22T01:46:47.776Z,1007.71
2019-04-22T01:48:39.409Z,1007.66
2019-04-22T01:49:40.225Z,1007.67
2019-04-22T01:50:41.092Z,1007.66
2019-04-22T01:51:56.617Z,1007.66
2019-04-22T01:52:39.869Z,1007.67
2019-04-22T01:53:43.291Z,1007.63
2019-04-22T01:54:43.384Z,1007.68
2019-04-22T01:56:42.496Z,1007.69
2019-04-22T01:57:37.706Z,1007.63
2019-04-22T01:58:36.148Z,1007.67
2019-04-22T01:59:31.829Z,1007.64
2019-04-22T02:00:40.151Z,1007.62
2019-04-22T02:01:43.696Z,1007.65
2019-04-22T02:02:42.359Z,1007.63
2019-04-22T02:03:41.430Z,1007.60
2019-04-22T02:05:40.216Z,1007.60
2019-04-22T02:06:44.623Z,1007.57
2019-04-22T02:07:42.464Z,1007.58
2019-04-22T02:08:44.673Z,1007.55
2019-04-22T02:10:49.255Z,1007.58
2019-04-22T02:11:48.327Z,1007.55
2019-04-22T02:12:43.362Z,1007.56
2019-04-22T02:13:42.773Z,1007.54
2019-04-22T02:14:48.457Z,1007.49
2019-04-22T02:15:39.925Z,1007.58
2019-04-22T02:16:41.293Z,1007.48
2019-04-22T02:20:35.930Z,1007.50
2019-04-22T02:21:42.551Z,1007.46
2019-04-22T02:23:00.823Z,1007.47
2019-04-22T02:23:53.973Z,1007.43
2019-04-22T02:24:59.049Z,1007.43
2019-04-22T02:25:42.703Z,1007.44
2019-04-22T02:26:41.976Z,1007.42
2019-04-22T02:27:50.862Z,1007.40
2019-04-22T02:28:40.101Z,1007.37
2019-04-22T02:29:44.472Z,1007.41
2019-04-22T02:31:01.901Z,1007.43
2019-04-22T02:31:44.485Z,1007.42
2019-04-22T02:33:11.486Z,1007.41
2019-04-22T02:34:45.982Z,1007.40
2019-04-22T02:35:58.231Z,1007.33
2019-04-22T02:36:43.139Z,1007.35
2019-04-22T02:37:35.859Z,1007.33
2019-04-22T02:39:45.191Z,1007.31
2019-04-22T02:41:06.712Z,1007.29
2019-04-22T02:42:42.840Z,1007.30
2019-04-22T02:44:42.969Z,1007.24
2019-04-22T02:47:01.167Z,1007.21
2019-04-22T02:48:26.213Z,1007.22
2019-04-22T02:50:01.751Z,1007.17
2019-04-22T02:50:45.361Z,1007.16
2019-04-22T02:51:36.664Z,1007.13
2019-04-22T02:54:19.374Z,1007.12
2019-04-22T02:55:51.211Z,1007.10
2019-04-22T02:57:04.413Z,1007.13
2019-04-22T02:59:00.127Z,1007.09
2019-04-22T03:00:44.358Z,1007.09
2019-04-22T03:01:41.236Z,1007.06
2019-04-22T03:03:11.067Z,1007.06
2019-04-22T03:04:01.656Z,1007.02
2019-04-22T03:04:59.872Z,1007.02
2019-04-22T03:06:55.401Z,1007.01
2019-04-22T03:07:53.789Z,1007.01
2019-04-22T03:08:45.517Z,1007.00
2019-04-22T03:09:59.542Z,1007.02
2019-04-22T03:12:41.345Z,1006.98
2019-04-22T03:15:52.847Z,1006.96
2019-04-22T03:17:45.656Z,1006.98
2019-04-22T03:19:09.906Z,1006.94
2019-04-22T03:19:50.659Z,1006.93
2019-04-22T03:20:51.883Z,1006.98
2019-04-22T03:22:52.070Z,1006.91
2019-04-22T03:23:55.893Z,1006.89
2019-04-22T03:24:51.305Z,1006.92
2019-04-22T03:26:05.040Z,1006.90
2019-04-22T03:27:38.797Z,1006.87
2019-04-22T03:30:10.426Z,1006.88
2019-04-22T03:30:53.600Z,1006.86
2019-04-22T03:34:15.433Z,1006.87
2019-04-22T03:35:19.153Z,1006.83
2019-04-22T03:42:52.455Z,1006.76
2019-04-22T03:43:39.555Z,1006.76
2019-04-22T03:47:41.489Z,1006.77
2019-04-22T03:48:26.277Z,1006.77
2019-04-22T03:49:39.285Z,1006.74
2019-04-22T03:50:25.884Z,1006.76
2019-04-22T03:51:36.149Z,1006.71
2019-04-22T03:52:22.887Z,1006.70
2019-04-22T03:54:40.335Z,1006.70
2019-04-22T03:56:56.427Z,1006.71
2019-04-22T03:57:40.589Z,1006.68
2019-04-22T03:58:21.848Z,1006.68
2019-04-22T03:59:33.506Z,1006.70
2019-04-22T04:00:35.606Z,1006.64
2019-04-22T04:01:37.002Z,1006.72
2019-04-22T04:02:38.662Z,1006.67
2019-04-22T04:03:28.951Z,1006.69
2019-04-22T04:05:41.529Z,1006.69
2019-04-22T04:06:36.616Z,1006.67
2019-04-22T04:07:47.439Z,1006.69
2019-04-22T04:09:32.160Z,1006.67
2019-04-22T04:10:37.656Z,1006.72
2019-04-22T04:12:28.823Z,1006.68
2019-04-22T04:17:34.877Z,1006.71
2019-04-22T04:18:33.070Z,1006.66
2019-04-22T04:19:34.928Z,1006.63
2019-04-22T04:20:32.282Z,1006.64
2019-04-22T04:24:57.912Z,1006.65
2019-04-22T04:27:43.179Z,1006.67
2019-04-22T04:29:51.481Z,1006.66
2019-04-22T04:33:36.037Z,1006.59
2019-04-22T04:34:43.739Z,1006.61
2019-04-22T04:36:35.513Z,1006.60
2019-04-22T04:37:42.621Z,1006.59
2019-04-22T04:38:28.842Z,1006.59
2019-04-22T04:43:25.225Z,1006.58
2019-04-22T04:45:00.866Z,1006.60
2019-04-22T04:45:41.047Z,1006.60
2019-04-22T04:46:42.853Z,1006.63
2019-04-22T04:47:44.039Z,1006.61
2019-04-22T04:48:34.980Z,1006.57
2019-04-22T04:50:34.803Z,1006.60
2019-04-22T04:51:32.998Z,1006.60
2019-04-22T04:52:39.802Z,1006.60
2019-04-22T04:54:32.886Z,1006.55
2019-04-22T04:55:35.105Z,1006.63
2019-04-22T04:56:38.513Z,1006.64
2019-04-22T04:57:41.002Z,1006.62
2019-04-22T04:58:36.763Z,1006.60
2019-04-22T04:59:39.386Z,1006.63
2019-04-22T05:01:35.589Z,1006.66
2019-04-22T05:02:37.383Z,1006.66
2019-04-22T05:03:39.712Z,1006.67
2019-04-22T05:04:31.242Z,1006.66
2019-04-22T05:05:29.498Z,1006.65
2019-04-22T05:06:36.896Z,1006.68
2019-04-22T05:08:39.034Z,1006.66
2019-04-22T05:09:34.046Z,1006.68
2019-04-22T05:10:41.183Z,1006.65
2019-04-22T05:11:38.210Z,1006.63
2019-04-22T05:13:35.127Z,1006.58
2019-04-22T05:14:36.866Z,1006.62
2019-04-22T05:15:23.068Z,1006.58
2019-04-22T05:17:25.772Z,1006.64
2019-04-22T05:18:29.330Z,1006.69
2019-04-22T05:19:26.215Z,1006.64
2019-04-22T05:20:32.013Z,1006.65
2019-04-22T05:22:28.558Z,1006.71
2019-04-22T05:23:38.816Z,1006.70
2019-04-22T05:24:28.474Z,1006.70
2019-04-22T05:25:24.466Z,1006.65
2019-04-22T05:26:30.984Z,1006.62
2019-04-22T05:27:29.432Z,1006.65
2019-04-22T05:28:26.615Z,1006.64
2019-04-22T05:29:34.608Z,1006.63
2019-04-22T05:31:15.427Z,1006.64
2019-04-22T05:32:27.143Z,1006.62
2019-04-22T05:33:26.287Z,1006.61
2019-04-22T05:34:22.554Z,1006.67
2019-04-22T05:40:22.008Z,1006.64
2019-04-22T05:41:10.140Z,1006.57
2019-04-22T05:42:15.219Z,1006.51
2019-04-22T05:43:13.902Z,1006.52
2019-04-22T05:44:14.751Z,1006.54
2019-04-22T05:45:14.809Z,1006.55
2019-04-22T05:46:13.965Z,1006.55
2019-04-22T05:47:15.209Z,1006.51
2019-04-22T05:48:15.021Z,1006.50
2019-04-22T05:49:18.868Z,1006.52
2019-04-22T05:50:16.879Z,1006.55
2019-04-22T05:51:09.696Z,1006.55
2019-04-22T05:52:17.242Z,1006.56
2019-04-22T05:53:07.093Z,1006.56
2019-04-22T05:54:14.744Z,1006.50
2019-04-22T05:55:14.321Z,1006.50
2019-04-22T05:56:23.877Z,1006.49
2019-04-22T05:57:14.522Z,1006.52
2019-04-22T05:58:15.248Z,1006.53
2019-04-22T05:59:10.348Z,1006.56
2019-04-22T06:00:17.970Z,1006.55
2019-04-22T06:03:12.285Z,1006.52
2019-04-22T06:04:09.797Z,1006.43
2019-04-22T06:05:11.961Z,1006.43
2019-04-22T06:06:16.340Z,1006.48
2019-04-22T06:07:13.678Z,1006.49
2019-04-22T06:08:13.256Z,1006.42
2019-04-22T06:09:12.545Z,1006.42
2019-04-22T06:10:22.903Z,1006.37
2019-04-22T06:11:20.901Z,1006.36
2019-04-22T06:12:10.703Z,1006.38
2019-04-22T06:13:06.055Z,1006.46
2019-04-22T06:14:11.630Z,1006.44
2019-04-22T06:15:12.793Z,1006.50
2019-04-22T06:16:09.253Z,1006.46
2019-04-22T06:18:16.140Z,1006.50
2019-04-22T06:19:13.769Z,1006.49
2019-04-22T06:20:10.597Z,1006.48
2019-04-22T06:21:12.652Z,1006.48
2019-04-22T06:22:25.407Z,1006.47
2019-04-22T06:24:16.618Z,1006.47
2019-04-22T06:25:22.716Z,1006.46
2019-04-22T06:26:27.223Z,1006.48
2019-04-22T06:27:19.122Z,1006.49
2019-04-22T06:28:22.017Z,1006.43
2019-04-22T06:29:15.074Z,1006.43
2019-04-22T06:30:17.296Z,1006.44
2019-04-22T06:31:21.040Z,1006.40
2019-04-22T06:33:15.302Z,1006.53
2019-04-22T06:34:17.222Z,1006.58
2019-04-22T06:35:19.831Z,1006.45
2019-04-22T06:36:21.107Z,1006.49
2019-04-22T06:37:13.054Z,1006.47
2019-04-22T06:39:17.344Z,1006.37
2019-04-22T06:40:16.418Z,1006.37
2019-04-22T06:41:16.848Z,1006.45
2019-04-22T06:42:13.426Z,1006.45
2019-04-22T06:43:33.786Z,1006.47
2019-04-22T06:45:20.463Z,1006.48
2019-04-22T06:46:14.709Z,1006.49
2019-04-22T06:47:25.242Z,1006.42
2019-04-22T06:49:18.742Z,1006.50
2019-04-22T06:50:16.418Z,1006.46
2019-04-22T06:51:18.009Z,1006.41
2019-04-22T06:52:17.038Z,1006.51
2019-04-22T06:53:09.095Z,1006.46
2019-04-22T06:54:14.108Z,1006.54
2019-04-22T06:55:15.360Z,1006.62
2019-04-22T06:56:13.623Z,1006.71
2019-04-22T06:57:13.791Z,1006.73
2019-04-22T06:58:10.685Z,1006.69
2019-04-22T06:59:16.865Z,1006.74
2019-04-22T07:00:14.376Z,1006.74
2019-04-22T07:01:18.214Z,1006.72
2019-04-22T07:02:18.096Z,1006.79
2019-04-22T07:04:14.141Z,1006.76
2019-04-22T07:05:19.781Z,1006.79
2019-04-22T07:06:12.763Z,1006.76
2019-04-22T07:07:14.158Z,1006.78
2019-04-22T07:08:30.474Z,1006.78
2019-04-22T07:10:23.815Z,1006.78
2019-04-22T07:11:06.238Z,1006.78
2019-04-22T07:12:11.627Z,1006.75
2019-04-22T07:13:21.116Z,1006.57
2019-04-22T07:14:11.937Z,1006.70
2019-04-22T07:15:24.309Z,1006.56
2019-04-22T07:16:13.272Z,1006.56
2019-04-22T07:17:34.405Z,1006.51
2019-04-22T07:23:54.014Z,1006.45
2019-04-22T07:24:47.718Z,1006.41
2019-04-22T07:27:08.158Z,1006.41
2019-04-22T07:29:29.341Z,1006.44
2019-04-22T07:30:26.228Z,1006.38
2019-04-22T07:31:23.537Z,1006.47
2019-04-22T07:37:43.535Z,1006.37
2019-04-22T07:38:35.921Z,1006.37
2019-04-22T07:44:26.423Z,1006.37
2019-04-22T07:48:33.474Z,1006.35
2019-04-22T07:50:44.795Z,1006.27
2019-04-22T07:51:26.856Z,1006.32
2019-04-22T07:53:21.935Z,1006.33
2019-04-22T07:54:26.383Z,1006.33
2019-04-22T07:56:12.213Z,1006.27
2019-04-22T07:58:16.798Z,1006.25
2019-04-22T07:59:09.475Z,1006.27
2019-04-22T08:00:15.692Z,1006.27
2019-04-22T08:01:15.613Z,1006.27
2019-04-22T08:02:10.363Z,1006.25
2019-04-22T08:03:14.618Z,1006.21
2019-04-22T08:04:16.015Z,1006.23
2019-04-22T08:06:07.911Z,1006.20
2019-04-22T08:06:57.547Z,1006.22
2019-04-22T08:10:39.044Z,1006.16
2019-04-22T08:11:43.714Z,1006.17
2019-04-22T08:14:02.590Z,1006.18
2019-04-22T08:14:50.020Z,1006.16
2019-04-22T08:15:48.331Z,1006.08
2019-04-22T08:16:51.974Z,1006.13
2019-04-22T08:17:59.854Z,1006.12
2019-04-22T08:18:47.429Z,1006.09
2019-04-22T08:19:50.130Z,1006.13
2019-04-22T08:20:47.293Z,1006.16
2019-04-22T08:21:49.430Z,1006.16
2019-04-22T08:22:52.204Z,1006.08
2019-04-22T08:24:51.261Z,1006.10
2019-04-22T08:25:43.128Z,1006.07
2019-04-22T08:26:52.021Z,1006.06
2019-04-22T08:27:45.586Z,1006.10
2019-04-22T08:28:45.838Z,1006.02
2019-04-22T08:30:48.496Z,1006.11
2019-04-22T08:31:49.656Z,1006.08
2019-04-22T08:32:47.452Z,1006.07
2019-04-22T08:33:49.636Z,1006.04
2019-04-22T08:34:42.772Z,1006.06
2019-04-22T08:36:05.001Z,1006.08
2019-04-22T08:37:13.761Z,1006.08
2019-04-22T08:39:10.954Z,1006.03
2019-04-22T08:39:45.327Z,1006.00
2019-04-22T08:40:53.361Z,1006.01
2019-04-22T08:41:41.546Z,1005.98
2019-04-22T08:42:58.376Z,1005.99
2019-04-22T08:43:55.884Z,1005.95
2019-04-22T08:45:57.958Z,1005.92
2019-04-22T08:47:42.297Z,1005.91
2019-04-22T08:48:48.390Z,1005.84
2019-04-22T08:49:50.783Z,1005.92
2019-04-22T08:50:44.682Z,1005.93
2019-04-22T08:51:42.630Z,1005.92
2019-04-22T08:52:51.043Z,1005.93
2019-04-22T08:53:49.970Z,1005.98
2019-04-22T08:54:46.943Z,1005.89
2019-04-22T08:55:54.174Z,1005.89
2019-04-22T08:58:03.306Z,1005.87
2019-04-22T08:58:50.160Z,1005.88
2019-04-22T08:59:48.713Z,1005.89
2019-04-22T09:00:52.914Z,1005.86
2019-04-22T09:01:47.176Z,1005.84
2019-04-22T09:02:46.782Z,1005.87
2019-04-22T09:03:50.449Z,1005.82
2019-04-22T09:04:45.043Z,1005.82
2019-04-22T09:05:55.355Z,1005.83
2019-04-22T09:07:02.423Z,1005.84
2019-04-22T09:07:47.115Z,1005.73
2019-04-22T09:08:48.737Z,1005.78
2019-04-22T09:09:44.419Z,1005.73
2019-04-22T09:10:50.350Z,1005.71
2019-04-22T09:11:52.966Z,1005.69
2019-04-22T09:13:03.119Z,1005.67
2019-04-22T09:13:50.421Z,1005.71
2019-04-22T09:15:45.505Z,1005.75
2019-04-22T09:16:43.988Z,1005.69
2019-04-22T09:17:47.817Z,1005.71
2019-04-22T09:18:48.741Z,1005.63
2019-04-22T09:19:50.054Z,1005.61
2019-04-22T09:20:49.292Z,1005.64
2019-04-22T09:21:53.234Z,1005.68
2019-04-22T09:22:51.523Z,1005.59
2019-04-22T09:24:46.973Z,1005.53
2019-04-22T09:26:03.814Z,1005.56
2019-04-22T09:26:47.661Z,1005.53
2019-04-22T09:27:51.215Z,1005.56
2019-04-22T09:28:52.317Z,1005.56
2019-04-22T09:29:43.096Z,1005.56
2019-04-22T09:30:47.088Z,1005.46
2019-04-22T09:31:47.413Z,1005.48
2019-04-22T09:32:44.726Z,1005.49
2019-04-22T09:33:43.374Z,1005.44
2019-04-22T09:34:47.269Z,1005.44
2019-04-22T09:36:50.225Z,1005.42
2019-04-22T09:37:50.399Z,1005.43
2019-04-22T09:38:41.136Z,1005.40
2019-04-22T09:39:53.436Z,1005.40
2019-04-22T09:40:50.036Z,1005.43
2019-04-22T09:41:46.562Z,1005.35
2019-04-22T09:44:47.610Z,1005.38
2019-04-22T09:45:37.799Z,1005.35
2019-04-22T09:46:47.204Z,1005.35
2019-04-22T09:47:48.982Z,1005.38
2019-04-22T09:49:53.200Z,1005.38
2019-04-22T09:50:58.875Z,1005.32
2019-04-22T09:51:44.957Z,1005.27
2019-04-22T09:52:51.477Z,1005.35
2019-04-22T09:53:57.785Z,1005.28
2019-04-22T09:54:52.994Z,1005.26
2019-04-22T09:55:45.126Z,1005.28
2019-04-22T09:56:47.518Z,1005.26
2019-04-22T09:57:47.029Z,1005.31
2019-04-22T09:58:46.272Z,1005.22
2019-04-22T09:59:52.511Z,1005.20
2019-04-22T10:00:54.176Z,1005.23
2019-04-22T10:01:40.990Z,1005.16
2019-04-22T10:02:53.512Z,1005.12
2019-04-22T10:03:51.674Z,1005.12
2019-04-22T10:04:46.683Z,1005.11
2019-04-22T10:05:52.490Z,1005.14
2019-04-22T10:06:41.135Z,1005.10
2019-04-22T10:07:47.359Z,1005.15
2019-04-22T10:08:52.652Z,1005.08
2019-04-22T10:10:49.065Z,1004.98
2019-04-22T10:11:45.166Z,1005.01
2019-04-22T10:12:42.838Z,1004.97
2019-04-22T10:13:50.830Z,1005.04
2019-04-22T10:14:45.647Z,1005.06
2019-04-22T10:15:46.892Z,1005.03
2019-04-22T10:17:47.280Z,1005.04
2019-04-22T10:18:46.422Z,1004.95
2019-04-22T10:19:51.710Z,1005.01
2019-04-22T10:20:45.878Z,1004.95
2019-04-22T10:22:02.948Z,1004.95
2019-04-22T10:22:46.474Z,1004.91
2019-04-22T10:23:45.367Z,1004.94
2019-04-22T10:24:49.509Z,1004.91
2019-04-22T10:25:45.912Z,1004.93
2019-04-22T10:27:00.037Z,1004.91
2019-04-22T10:27:47.720Z,1004.87
2019-04-22T10:28:53.096Z,1004.85
2019-04-22T10:29:52.247Z,1004.90
2019-04-22T10:30:47.434Z,1004.91
2019-04-22T10:31:43.671Z,1004.85
2019-04-22T10:32:42.049Z,1004.85
2019-04-22T10:33:38.170Z,1004.89
2019-04-22T10:34:32.514Z,1004.85
2019-04-22T10:35:23.586Z,1004.86
2019-04-22T10:36:21.463Z,1004.84
2019-04-22T10:37:22.402Z,1004.79
2019-04-22T10:38:20.307Z,1004.69
2019-04-22T10:39:20.439Z,1004.75
2019-04-22T10:40:21.745Z,1004.78
2019-04-22T10:41:20.702Z,1004.65
2019-04-22T10:42:20.852Z,1004.59
2019-04-22T10:43:21.109Z,1004.75
2019-04-22T10:44:21.321Z,1004.71
2019-04-22T10:45:21.843Z,1004.69
2019-04-22T10:46:20.346Z,1004.70
2019-04-22T10:47:20.354Z,1004.66
2019-04-22T10:48:22.033Z,1004.63
2019-04-22T10:49:20.418Z,1004.65
2019-04-22T10:50:20.670Z,1004.73
2019-04-22T10:51:20.372Z,1004.65
2019-04-22T10:52:21.605Z,1004.64
2019-04-22T10:53:21.661Z,1004.67
2019-04-22T10:54:20.385Z,1004.65
2019-04-22T10:55:21.317Z,1004.65
2019-04-22T10:56:20.964Z,1004.63
2019-04-22T10:57:20.402Z,1004.64
2019-04-22T10:58:20.973Z,1004.61
2019-04-22T10:59:20.677Z,1004.68
2019-04-22T11:00:21.671Z,1004.62
2019-04-22T11:01:21.170Z,1004.57
2019-04-22T11:02:21.481Z,1004.52
2019-04-22T11:03:20.503Z,1004.56
2019-04-22T11:04:21.583Z,1004.60
2019-04-22T11:05:21.886Z,1004.57
2019-04-22T11:06:21.284Z,1004.49
2019-04-22T11:07:25.246Z,1004.49
2019-04-22T11:08:31.520Z,1004.50
2019-04-22T11:09:23.356Z,1004.49
2019-04-22T11:10:36.775Z,1004.53
2019-04-22T11:11:30.188Z,1004.45
2019-04-22T11:12:23.359Z,1004.44
2019-04-22T11:13:22.110Z,1004.44
2019-04-22T11:14:21.065Z,1004.47
2019-04-22T11:15:20.500Z,1004.41
2019-04-22T11:16:21.420Z,1004.39
2019-04-22T11:17:21.747Z,1004.27
2019-04-22T11:18:20.516Z,1004.42
2019-04-22T11:19:21.407Z,1004.34
2019-04-22T11:20:21.798Z,1004.27
2019-04-22T11:21:20.539Z,1004.31
2019-04-22T11:22:24.521Z,1004.27
2019-04-22T11:23:20.695Z,1004.25
2019-04-22T11:24:21.000Z,1004.30
2019-04-22T11:25:21.647Z,1004.13
2019-04-22T11:26:21.852Z,1004.19
2019-04-22T11:27:21.201Z,1004.11
2019-04-22T11:28:20.624Z,1004.17
2019-04-22T11:29:21.416Z,1004.18
2019-04-22T11:30:23.823Z,1004.18
2019-04-22T11:31:20.742Z,1004.08
2019-04-22T11:32:20.607Z,1004.13
2019-04-22T11:33:20.705Z,1004.17
2019-04-22T11:34:21.374Z,1004.10
2019-04-22T11:35:21.841Z,1004.14
2019-04-22T11:36:21.783Z,1004.07
2019-04-22T11:37:20.833Z,1003.92
2019-04-22T11:38:20.643Z,1004.02
2019-04-22T11:39:21.753Z,1004.07
2019-04-22T11:40:31.655Z,1004.06
2019-04-22T11:41:21.599Z,1004.13
2019-04-22T11:42:20.668Z,1004.04
2019-04-22T11:43:21.944Z,1003.99
2019-04-22T11:44:21.399Z,1004.03
2019-04-22T11:45:21.510Z,1003.97
2019-04-22T11:46:21.101Z,1004.02
2019-04-22T11:47:21.473Z,1003.93
2019-04-22T11:48:21.449Z,1003.97
2019-04-22T11:49:21.869Z,1003.94
2019-04-22T11:50:21.817Z,1003.92
2019-04-22T11:51:22.034Z,1003.91
2019-04-22T11:52:20.723Z,1003.87
2019-04-22T11:53:20.752Z,1003.86
2019-04-22T11:54:21.089Z,1003.87
2019-04-22T11:55:20.745Z,1003.84
2019-04-22T11:56:20.924Z,1003.88
2019-04-22T11:57:21.146Z,1003.86
2019-04-22T12:01:28.905Z,1003.79
2019-04-22T12:02:33.122Z,1003.78
2019-04-22T12:05:59.868Z,1003.76
2019-04-22T12:07:00.129Z,1003.74
2019-04-22T12:07:59.641Z,1003.71
2019-04-22T12:08:59.688Z,1003.76
2019-04-22T12:09:59.822Z,1003.80
2019-04-22T12:11:03.596Z,1003.63
2019-04-22T12:11:59.965Z,1003.75
2019-04-22T12:13:03.923Z,1003.66
2019-04-22T12:14:00.179Z,1003.69
2019-04-22T12:15:01.096Z,1003.66
2019-04-22T12:16:00.921Z,1003.61
2019-04-22T12:18:43.069Z,1003.54
2019-04-22T12:19:42.116Z,1003.60
2019-04-22T12:26:44.457Z,1003.53
2019-04-22T12:30:04.982Z,1003.45
2019-04-22T12:38:41.817Z,1003.32
